sensor_id;sensor_type;location;lat;lon;timestamp;P1;durP1;ratioP1;P2;durP2;ratioP2
25531;SDS011;13429;48.816;9.118;2022-09-29T00:00:07;3.05;;;1.95;;
25531;SDS011;13429;48.816;9.118;2022-09-29T00:02:33;3.88;;;1.90;;
25531;SDS011;13429;48.816;9.118;2022-09-29T00:04:59;4.25;;;2.20;;
25531;SDS011;13429;48.816;9.118;2022-09-29T00:07:27;5.00;;;2.10;;
25531;SDS011;13429;48.816;9.118;2022-09-29T00:09:52;5.38;;;2.83;;
25531;SDS011;13429;48.816;9.118;2022-09-29T00:12:18;5.95;;;2.75;;
25531;SDS011;13429;48.816;9.118;2022-09-29T00:14:44;5.00;;;1.92;;
25531;SDS011;13429;48.816;9.118;2022-09-29T00:17:10;4.60;;;2.40;;
25531;SDS011;13429;48.816;9.118;2022-09-29T00:19:38;3.17;;;2.10;;
25531;SDS011;13429;48.816;9.118;2022-09-29T00:22:04;4.95;;;2.72;;
25531;SDS011;13429;48.816;9.118;2022-09-29T00:24:29;4.55;;;2.20;;
25531;SDS011;13429;48.816;9.118;2022-09-29T00:26:56;4.28;;;2.17;;
25531;SDS011;13429;48.816;9.118;2022-09-29T00:29:22;4.32;;;2.13;;
25531;SDS011;13429;48.816;9.118;2022-09-29T00:31:48;3.95;;;2.22;;
25531;SDS011;13429;48.816;9.118;2022-09-29T00:34:14;6.63;;;2.20;;
25531;SDS011;13429;48.816;9.118;2022-09-29T00:36:40;6.38;;;2.20;;
25531;SDS011;13429;48.816;9.118;2022-09-29T00:39:07;3.20;;;2.30;;
25531;SDS011;13429;48.816;9.118;2022-09-29T00:41:34;6.82;;;2.78;;
25531;SDS011;13429;48.816;9.118;2022-09-29T00:44:01;3.08;;;1.92;;
25531;SDS011;13429;48.816;9.118;2022-09-29T00:48:54;5.50;;;2.17;;
25531;SDS011;13429;48.816;9.118;2022-09-29T00:51:20;3.58;;;2.55;;
25531;SDS011;13429;48.816;9.118;2022-09-29T00:53:46;7.78;;;3.28;;
25531;SDS011;13429;48.816;9.118;2022-09-29T00:56:13;6.75;;;3.05;;
25531;SDS011;13429;48.816;9.118;2022-09-29T00:58:41;5.68;;;2.97;;
25531;SDS011;13429;48.816;9.118;2022-09-29T01:01:09;7.03;;;3.53;;
25531;SDS011;13429;48.816;9.118;2022-09-29T01:03:37;4.38;;;2.63;;
25531;SDS011;13429;48.816;9.118;2022-09-29T01:06:07;5.15;;;3.58;;
25531;SDS011;13429;48.816;9.118;2022-09-29T01:08:44;5.07;;;2.80;;
25531;SDS011;13429;48.816;9.118;2022-09-29T01:11:12;5.63;;;2.40;;
25531;SDS011;13429;48.816;9.118;2022-09-29T01:13:38;6.53;;;2.72;;
25531;SDS011;13429;48.816;9.118;2022-09-29T01:16:05;7.95;;;2.70;;
25531;SDS011;13429;48.816;9.118;2022-09-29T01:18:31;5.95;;;2.45;;
25531;SDS011;13429;48.816;9.118;2022-09-29T01:23:32;7.90;;;3.08;;
25531;SDS011;13429;48.816;9.118;2022-09-29T01:36:34;4.47;;;3.05;;
25531;SDS011;13429;48.816;9.118;2022-09-29T01:44:08;6.55;;;2.85;;
25531;SDS011;13429;48.816;9.118;2022-09-29T01:46:40;5.00;;;2.50;;
25531;SDS011;13429;48.816;9.118;2022-09-29T01:49:07;7.70;;;3.20;;
25531;SDS011;13429;48.816;9.118;2022-09-29T01:51:35;5.20;;;2.10;;
25531;SDS011;13429;48.816;9.118;2022-09-29T01:54:04;6.95;;;2.65;;
25531;SDS011;13429;48.816;9.118;2022-09-29T01:56:35;4.53;;;2.75;;
25531;SDS011;13429;48.816;9.118;2022-09-29T01:59:21;3.75;;;2.25;;
25531;SDS011;13429;48.816;9.118;2022-09-29T02:01:49;6.13;;;2.67;;
25531;SDS011;13429;48.816;9.118;2022-09-29T02:06:50;6.13;;;2.28;;
25531;SDS011;13429;48.816;9.118;2022-09-29T02:09:21;3.33;;;2.38;;
25531;SDS011;13429;48.816;9.118;2022-09-29T02:11:48;3.78;;;2.72;;
25531;SDS011;13429;48.816;9.118;2022-09-29T02:14:16;6.22;;;2.40;;
25531;SDS011;13429;48.816;9.118;2022-09-29T02:16:47;4.18;;;1.92;;
25531;SDS011;13429;48.816;9.118;2022-09-29T02:19:18;3.90;;;2.05;;
25531;SDS011;13429;48.816;9.118;2022-09-29T02:24:10;4.78;;;2.78;;
25531;SDS011;13429;48.816;9.118;2022-09-29T02:26:37;5.53;;;2.10;;
25531;SDS011;13429;48.816;9.118;2022-09-29T02:29:05;5.97;;;2.38;;
25531;SDS011;13429;48.816;9.118;2022-09-29T02:31:32;4.30;;;2.30;;
25531;SDS011;13429;48.816;9.118;2022-09-29T02:33:59;4.05;;;2.33;;
25531;SDS011;13429;48.816;9.118;2022-09-29T02:36:39;3.55;;;1.88;;
25531;SDS011;13429;48.816;9.118;2022-09-29T02:41:49;7.32;;;2.28;;
25531;SDS011;13429;48.816;9.118;2022-09-29T02:44:26;3.13;;;2.38;;
25531;SDS011;13429;48.816;9.118;2022-09-29T02:55:29;4.32;;;2.38;;
25531;SDS011;13429;48.816;9.118;2022-09-29T03:00:10;6.20;;;2.42;;
25531;SDS011;13429;48.816;9.118;2022-09-29T03:02:37;4.82;;;2.88;;
25531;SDS011;13429;48.816;9.118;2022-09-29T03:05:04;6.50;;;3.10;;
25531;SDS011;13429;48.816;9.118;2022-09-29T03:07:30;4.63;;;2.45;;
25531;SDS011;13429;48.816;9.118;2022-09-29T03:09:56;4.78;;;2.67;;
25531;SDS011;13429;48.816;9.118;2022-09-29T03:12:22;5.55;;;2.55;;
25531;SDS011;13429;48.816;9.118;2022-09-29T03:14:48;5.72;;;2.78;;
25531;SDS011;13429;48.816;9.118;2022-09-29T03:17:14;7.88;;;3.03;;
25531;SDS011;13429;48.816;9.118;2022-09-29T03:19:40;4.32;;;3.15;;
25531;SDS011;13429;48.816;9.118;2022-09-29T03:22:06;3.60;;;2.30;;
25531;SDS011;13429;48.816;9.118;2022-09-29T03:24:32;3.83;;;2.53;;
25531;SDS011;13429;48.816;9.118;2022-09-29T03:26:59;4.78;;;2.60;;
25531;SDS011;13429;48.816;9.118;2022-09-29T03:29:25;3.42;;;2.10;;
25531;SDS011;13429;48.816;9.118;2022-09-29T03:31:51;3.22;;;2.08;;
25531;SDS011;13429;48.816;9.118;2022-09-29T03:34:17;2.50;;;1.70;;
25531;SDS011;13429;48.816;9.118;2022-09-29T03:39:46;5.28;;;2.45;;
25531;SDS011;13429;48.816;9.118;2022-09-29T03:42:12;3.15;;;1.67;;
25531;SDS011;13429;48.816;9.118;2022-09-29T03:44:38;6.80;;;2.40;;
25531;SDS011;13429;48.816;9.118;2022-09-29T03:47:04;5.07;;;2.45;;
25531;SDS011;13429;48.816;9.118;2022-09-29T03:49:30;6.45;;;2.80;;
25531;SDS011;13429;48.816;9.118;2022-09-29T03:51:56;8.05;;;3.22;;
25531;SDS011;13429;48.816;9.118;2022-09-29T03:54:22;5.60;;;3.13;;
25531;SDS011;13429;48.816;9.118;2022-09-29T03:56:51;4.82;;;2.72;;
25531;SDS011;13429;48.816;9.118;2022-09-29T03:59:17;3.67;;;2.47;;
25531;SDS011;13429;48.816;9.118;2022-09-29T04:01:42;4.90;;;2.55;;
25531;SDS011;13429;48.816;9.118;2022-09-29T04:04:08;4.90;;;2.78;;
25531;SDS011;13429;48.816;9.118;2022-09-29T04:06:35;7.95;;;3.03;;
25531;SDS011;13429;48.816;9.118;2022-09-29T04:09:01;4.13;;;2.80;;
25531;SDS011;13429;48.816;9.118;2022-09-29T04:11:27;5.68;;;2.78;;
25531;SDS011;13429;48.816;9.118;2022-09-29T04:13:53;4.10;;;2.08;;
25531;SDS011;13429;48.816;9.118;2022-09-29T04:16:19;3.25;;;2.28;;
25531;SDS011;13429;48.816;9.118;2022-09-29T04:18:45;5.38;;;2.90;;
25531;SDS011;13429;48.816;9.118;2022-09-29T04:21:11;4.88;;;2.63;;
25531;SDS011;13429;48.816;9.118;2022-09-29T04:23:37;12.10;;;3.10;;
25531;SDS011;13429;48.816;9.118;2022-09-29T04:29:06;8.23;;;3.33;;
25531;SDS011;13429;48.816;9.118;2022-09-29T04:31:32;5.35;;;3.40;;
25531;SDS011;13429;48.816;9.118;2022-09-29T04:33:58;4.65;;;3.30;;
25531;SDS011;13429;48.816;9.118;2022-09-29T04:36:24;8.10;;;3.88;;
25531;SDS011;13429;48.816;9.118;2022-09-29T04:38:51;5.70;;;3.38;;
25531;SDS011;13429;48.816;9.118;2022-09-29T04:41:17;4.78;;;2.80;;
25531;SDS011;13429;48.816;9.118;2022-09-29T04:43:43;4.22;;;2.90;;
25531;SDS011;13429;48.816;9.118;2022-09-29T04:46:09;6.00;;;3.15;;
25531;SDS011;13429;48.816;9.118;2022-09-29T04:48:35;4.95;;;3.08;;
25531;SDS011;13429;48.816;9.118;2022-09-29T04:51:02;5.82;;;3.17;;
25531;SDS011;13429;48.816;9.118;2022-09-29T04:53:28;8.85;;;3.40;;
25531;SDS011;13429;48.816;9.118;2022-09-29T04:55:54;7.78;;;4.45;;
25531;SDS011;13429;48.816;9.118;2022-09-29T04:58:20;9.35;;;4.00;;
25531;SDS011;13429;48.816;9.118;2022-09-29T05:00:46;5.95;;;3.65;;
25531;SDS011;13429;48.816;9.118;2022-09-29T05:03:12;6.32;;;3.90;;
25531;SDS011;13429;48.816;9.118;2022-09-29T05:05:38;6.55;;;4.05;;
25531;SDS011;13429;48.816;9.118;2022-09-29T05:08:04;8.63;;;3.55;;
25531;SDS011;13429;48.816;9.118;2022-09-29T05:10:30;6.10;;;3.60;;
25531;SDS011;13429;48.816;9.118;2022-09-29T05:12:56;5.00;;;3.20;;
25531;SDS011;13429;48.816;9.118;2022-09-29T05:15:22;6.97;;;3.55;;
25531;SDS011;13429;48.816;9.118;2022-09-29T05:17:49;5.57;;;3.10;;
25531;SDS011;13429;48.816;9.118;2022-09-29T05:20:15;10.02;;;3.72;;
25531;SDS011;13429;48.816;9.118;2022-09-29T05:22:41;6.57;;;3.35;;
25531;SDS011;13429;48.816;9.118;2022-09-29T05:25:07;5.32;;;3.60;;
25531;SDS011;13429;48.816;9.118;2022-09-29T05:27:34;4.13;;;3.20;;
25531;SDS011;13429;48.816;9.118;2022-09-29T05:30:00;3.90;;;2.90;;
25531;SDS011;13429;48.816;9.118;2022-09-29T05:32:27;6.28;;;3.30;;
25531;SDS011;13429;48.816;9.118;2022-09-29T05:34:53;7.32;;;3.33;;
25531;SDS011;13429;48.816;9.118;2022-09-29T05:37:18;5.85;;;3.33;;
25531;SDS011;13429;48.816;9.118;2022-09-29T05:39:44;8.38;;;3.70;;
25531;SDS011;13429;48.816;9.118;2022-09-29T05:42:11;7.95;;;3.60;;
25531;SDS011;13429;48.816;9.118;2022-09-29T05:44:37;4.53;;;3.38;;
25531;SDS011;13429;48.816;9.118;2022-09-29T05:47:03;5.75;;;3.53;;
25531;SDS011;13429;48.816;9.118;2022-09-29T05:49:29;6.95;;;3.28;;
25531;SDS011;13429;48.816;9.118;2022-09-29T05:51:56;5.80;;;3.45;;
25531;SDS011;13429;48.816;9.118;2022-09-29T05:54:22;7.25;;;3.58;;
25531;SDS011;13429;48.816;9.118;2022-09-29T05:56:49;6.47;;;3.85;;
25531;SDS011;13429;48.816;9.118;2022-09-29T05:59:15;6.43;;;3.92;;
25531;SDS011;13429;48.816;9.118;2022-09-29T06:01:41;6.65;;;3.25;;
25531;SDS011;13429;48.816;9.118;2022-09-29T06:04:07;6.10;;;3.33;;
25531;SDS011;13429;48.816;9.118;2022-09-29T06:06:33;5.50;;;3.67;;
25531;SDS011;13429;48.816;9.118;2022-09-29T06:09:01;8.30;;;3.38;;
25531;SDS011;13429;48.816;9.118;2022-09-29T06:11:28;7.38;;;3.90;;
25531;SDS011;13429;48.816;9.118;2022-09-29T06:13:57;7.47;;;3.53;;
25531;SDS011;13429;48.816;9.118;2022-09-29T06:16:24;6.38;;;3.00;;
25531;SDS011;13429;48.816;9.118;2022-09-29T06:18:50;5.55;;;3.65;;
25531;SDS011;13429;48.816;9.118;2022-09-29T06:21:18;4.72;;;2.97;;
25531;SDS011;13429;48.816;9.118;2022-09-29T06:23:44;6.82;;;3.50;;
25531;SDS011;13429;48.816;9.118;2022-09-29T06:26:11;6.20;;;3.75;;
25531;SDS011;13429;48.816;9.118;2022-09-29T06:28:37;6.30;;;4.10;;
25531;SDS011;13429;48.816;9.118;2022-09-29T06:31:04;6.25;;;3.53;;
25531;SDS011;13429;48.816;9.118;2022-09-29T06:33:31;9.23;;;3.42;;
25531;SDS011;13429;48.816;9.118;2022-09-29T06:35:57;6.88;;;3.72;;
25531;SDS011;13429;48.816;9.118;2022-09-29T06:38:43;8.77;;;4.55;;
25531;SDS011;13429;48.816;9.118;2022-09-29T06:41:09;4.78;;;3.30;;
25531;SDS011;13429;48.816;9.118;2022-09-29T06:43:35;6.97;;;3.85;;
25531;SDS011;13429;48.816;9.118;2022-09-29T06:46:02;8.98;;;3.90;;
25531;SDS011;13429;48.816;9.118;2022-09-29T06:48:28;4.95;;;3.45;;
25531;SDS011;13429;48.816;9.118;2022-09-29T06:50:54;6.43;;;3.50;;
25531;SDS011;13429;48.816;9.118;2022-09-29T06:53:20;5.40;;;3.03;;
25531;SDS011;13429;48.816;9.118;2022-09-29T06:55:53;4.82;;;3.75;;
25531;SDS011;13429;48.816;9.118;2022-09-29T06:58:20;9.20;;;5.38;;
25531;SDS011;13429;48.816;9.118;2022-09-29T07:00:46;11.02;;;4.63;;
25531;SDS011;13429;48.816;9.118;2022-09-29T07:03:12;8.57;;;4.68;;
25531;SDS011;13429;48.816;9.118;2022-09-29T07:05:38;10.82;;;4.97;;
25531;SDS011;13429;48.816;9.118;2022-09-29T07:08:04;8.02;;;4.93;;
25531;SDS011;13429;48.816;9.118;2022-09-29T07:10:30;7.43;;;3.90;;
25531;SDS011;13429;48.816;9.118;2022-09-29T07:12:56;8.60;;;4.47;;
25531;SDS011;13429;48.816;9.118;2022-09-29T07:15:22;8.23;;;3.95;;
25531;SDS011;13429;48.816;9.118;2022-09-29T07:17:55;8.20;;;4.00;;
25531;SDS011;13429;48.816;9.118;2022-09-29T07:20:21;6.60;;;4.15;;
25531;SDS011;13429;48.816;9.118;2022-09-29T07:22:47;4.95;;;3.70;;
25531;SDS011;13429;48.816;9.118;2022-09-29T07:25:13;6.75;;;3.95;;
25531;SDS011;13429;48.816;9.118;2022-09-29T07:27:39;11.35;;;4.57;;
25531;SDS011;13429;48.816;9.118;2022-09-29T07:30:05;5.28;;;3.95;;
25531;SDS011;13429;48.816;9.118;2022-09-29T07:32:31;8.80;;;4.53;;
25531;SDS011;13429;48.816;9.118;2022-09-29T07:34:57;9.68;;;4.25;;
25531;SDS011;13429;48.816;9.118;2022-09-29T07:37:24;11.07;;;5.35;;
25531;SDS011;13429;48.816;9.118;2022-09-29T07:39:50;7.60;;;4.82;;
25531;SDS011;13429;48.816;9.118;2022-09-29T07:42:17;8.80;;;4.22;;
25531;SDS011;13429;48.816;9.118;2022-09-29T07:44:43;7.45;;;4.70;;
25531;SDS011;13429;48.816;9.118;2022-09-29T07:47:09;6.75;;;4.30;;
25531;SDS011;13429;48.816;9.118;2022-09-29T07:49:35;9.65;;;4.68;;
25531;SDS011;13429;48.816;9.118;2022-09-29T07:52:01;9.65;;;3.97;;
25531;SDS011;13429;48.816;9.118;2022-09-29T07:54:27;6.45;;;4.38;;
25531;SDS011;13429;48.816;9.118;2022-09-29T07:56:53;6.57;;;4.90;;
25531;SDS011;13429;48.816;9.118;2022-09-29T07:59:19;7.32;;;3.78;;
25531;SDS011;13429;48.816;9.118;2022-09-29T08:01:45;9.45;;;5.00;;
25531;SDS011;13429;48.816;9.118;2022-09-29T08:04:11;9.48;;;4.65;;
25531;SDS011;13429;48.816;9.118;2022-09-29T08:06:37;8.45;;;4.43;;
25531;SDS011;13429;48.816;9.118;2022-09-29T08:09:04;5.60;;;3.97;;
25531;SDS011;13429;48.816;9.118;2022-09-29T08:11:30;7.43;;;3.78;;
25531;SDS011;13429;48.816;9.118;2022-09-29T08:13:56;8.32;;;4.35;;
25531;SDS011;13429;48.816;9.118;2022-09-29T08:16:22;6.68;;;3.97;;
25531;SDS011;13429;48.816;9.118;2022-09-29T08:18:48;7.05;;;3.67;;
25531;SDS011;13429;48.816;9.118;2022-09-29T08:21:15;5.95;;;3.92;;
25531;SDS011;13429;48.816;9.118;2022-09-29T08:23:41;5.55;;;3.20;;
25531;SDS011;13429;48.816;9.118;2022-09-29T08:26:12;7.18;;;3.20;;
25531;SDS011;13429;48.816;9.118;2022-09-29T08:28:39;8.38;;;3.53;;
25531;SDS011;13429;48.816;9.118;2022-09-29T08:31:06;9.18;;;3.00;;
25531;SDS011;13429;48.816;9.118;2022-09-29T08:33:33;4.57;;;2.90;;
25531;SDS011;13429;48.816;9.118;2022-09-29T08:35:59;5.97;;;3.00;;
25531;SDS011;13429;48.816;9.118;2022-09-29T08:38:27;7.95;;;2.35;;
25531;SDS011;13429;48.816;9.118;2022-09-29T08:40:53;6.10;;;3.63;;
25531;SDS011;13429;48.816;9.118;2022-09-29T08:43:25;4.72;;;2.72;;
25531;SDS011;13429;48.816;9.118;2022-09-29T08:45:57;6.80;;;3.35;;
25531;SDS011;13429;48.816;9.118;2022-09-29T08:48:24;5.57;;;3.28;;
25531;SDS011;13429;48.816;9.118;2022-09-29T08:50:58;6.10;;;3.50;;
25531;SDS011;13429;48.816;9.118;2022-09-29T08:53:24;6.25;;;3.25;;
25531;SDS011;13429;48.816;9.118;2022-09-29T08:58:17;4.75;;;2.90;;
25531;SDS011;13429;48.816;9.118;2022-09-29T09:19:09;4.45;;;2.83;;
25531;SDS011;13429;48.816;9.118;2022-09-29T09:21:41;5.97;;;2.97;;
25531;SDS011;13429;48.816;9.118;2022-09-29T09:26:39;3.45;;;2.00;;
25531;SDS011;13429;48.816;9.118;2022-09-29T09:29:26;10.15;;;5.50;;
25531;SDS011;13429;48.816;9.118;2022-09-29T09:31:58;6.82;;;3.22;;
25531;SDS011;13429;48.816;9.118;2022-09-29T09:36:59;3.97;;;2.58;;
25531;SDS011;13429;48.816;9.118;2022-09-29T09:39:32;5.00;;;2.83;;
25531;SDS011;13429;48.816;9.118;2022-09-29T09:42:00;3.70;;;2.33;;
25531;SDS011;13429;48.816;9.118;2022-09-29T09:44:45;9.20;;;3.85;;
25531;SDS011;13429;48.816;9.118;2022-09-29T09:47:25;10.75;;;5.95;;
25531;SDS011;13429;48.816;9.118;2022-09-29T09:50:02;8.23;;;3.78;;
25531;SDS011;13429;48.816;9.118;2022-09-29T09:52:30;9.35;;;4.10;;
25531;SDS011;13429;48.816;9.118;2022-09-29T09:55:04;7.07;;;2.97;;
25531;SDS011;13429;48.816;9.118;2022-09-29T10:03:01;5.65;;;2.33;;
25531;SDS011;13429;48.816;9.118;2022-09-29T10:05:31;6.00;;;2.60;;
25531;SDS011;13429;48.816;9.118;2022-09-29T10:08:00;4.30;;;2.00;;
25531;SDS011;13429;48.816;9.118;2022-09-29T10:10:28;7.13;;;2.08;;
25531;SDS011;13429;48.816;9.118;2022-09-29T10:12:57;3.10;;;2.10;;
25531;SDS011;13429;48.816;9.118;2022-09-29T10:15:24;5.15;;;2.70;;
25531;SDS011;13429;48.816;9.118;2022-09-29T10:18:03;5.38;;;2.70;;
25531;SDS011;13429;48.816;9.118;2022-09-29T10:20:32;4.32;;;2.90;;
25531;SDS011;13429;48.816;9.118;2022-09-29T10:23:15;6.30;;;2.55;;
25531;SDS011;13429;48.816;9.118;2022-09-29T10:25:49;5.60;;;2.35;;
25531;SDS011;13429;48.816;9.118;2022-09-29T10:28:15;7.60;;;2.17;;
25531;SDS011;13429;48.816;9.118;2022-09-29T10:30:42;4.82;;;2.88;;
25531;SDS011;13429;48.816;9.118;2022-09-29T10:33:10;5.18;;;2.05;;
25531;SDS011;13429;48.816;9.118;2022-09-29T10:35:39;6.03;;;2.63;;
25531;SDS011;13429;48.816;9.118;2022-09-29T10:38:24;4.07;;;2.30;;
25531;SDS011;13429;48.816;9.118;2022-09-29T10:40:58;5.30;;;2.08;;
25531;SDS011;13429;48.816;9.118;2022-09-29T10:43:26;5.78;;;2.50;;
25531;SDS011;13429;48.816;9.118;2022-09-29T10:48:24;16.95;;;2.70;;
25531;SDS011;13429;48.816;9.118;2022-09-29T10:50:51;6.38;;;2.42;;
25531;SDS011;13429;48.816;9.118;2022-09-29T10:53:23;3.70;;;2.55;;
25531;SDS011;13429;48.816;9.118;2022-09-29T10:55:50;3.30;;;2.17;;
25531;SDS011;13429;48.816;9.118;2022-09-29T11:01:03;5.57;;;2.13;;
25531;SDS011;13429;48.816;9.118;2022-09-29T11:03:31;4.60;;;1.95;;
25531;SDS011;13429;48.816;9.118;2022-09-29T11:06:00;4.78;;;2.05;;
25531;SDS011;13429;48.816;9.118;2022-09-29T11:08:26;5.60;;;1.58;;
25531;SDS011;13429;48.816;9.118;2022-09-29T11:11:06;3.03;;;2.05;;
25531;SDS011;13429;48.816;9.118;2022-09-29T11:13:38;4.47;;;2.15;;
25531;SDS011;13429;48.816;9.118;2022-09-29T11:16:17;2.88;;;1.88;;
25531;SDS011;13429;48.816;9.118;2022-09-29T11:18:45;5.22;;;1.77;;
25531;SDS011;13429;48.816;9.118;2022-09-29T11:31:41;2.40;;;1.40;;
25531;SDS011;13429;48.816;9.118;2022-09-29T11:36:58;2.58;;;1.30;;
25531;SDS011;13429;48.816;9.118;2022-09-29T11:42:14;2.45;;;1.10;;
25531;SDS011;13429;48.816;9.118;2022-09-29T11:44:54;3.25;;;1.30;;
25531;SDS011;13429;48.816;9.118;2022-09-29T11:50:16;4.38;;;1.52;;
25531;SDS011;13429;48.816;9.118;2022-09-29T12:00:45;4.18;;;1.27;;
25531;SDS011;13429;48.816;9.118;2022-09-29T12:03:32;2.40;;;1.20;;
25531;SDS011;13429;48.816;9.118;2022-09-29T12:06:18;2.10;;;1.20;;
25531;SDS011;13429;48.816;9.118;2022-09-29T12:14:24;6.53;;;1.70;;
25531;SDS011;13429;48.816;9.118;2022-09-29T12:16:56;3.67;;;1.60;;
25531;SDS011;13429;48.816;9.118;2022-09-29T12:19:23;6.15;;;1.75;;
25531;SDS011;13429;48.816;9.118;2022-09-29T12:21:51;2.97;;;1.30;;
25531;SDS011;13429;48.816;9.118;2022-09-29T12:24:31;3.97;;;1.55;;
25531;SDS011;13429;48.816;9.118;2022-09-29T12:26:58;2.95;;;1.73;;
25531;SDS011;13429;48.816;9.118;2022-09-29T12:32:36;5.28;;;2.03;;
25531;SDS011;13429;48.816;9.118;2022-09-29T12:35:08;4.95;;;1.80;;
25531;SDS011;13429;48.816;9.118;2022-09-29T12:37:46;3.83;;;1.58;;
25531;SDS011;13429;48.816;9.118;2022-09-29T12:51:12;5.03;;;1.80;;
25531;SDS011;13429;48.816;9.118;2022-09-29T12:54:05;5.30;;;1.80;;
25531;SDS011;13429;48.816;9.118;2022-09-29T12:56:37;5.53;;;1.88;;
25531;SDS011;13429;48.816;9.118;2022-09-29T12:59:13;4.28;;;1.60;;
25531;SDS011;13429;48.816;9.118;2022-09-29T13:01:41;4.50;;;1.80;;
25531;SDS011;13429;48.816;9.118;2022-09-29T13:11:50;4.53;;;2.20;;
25531;SDS011;13429;48.816;9.118;2022-09-29T13:16:50;9.98;;;2.40;;
25531;SDS011;13429;48.816;9.118;2022-09-29T13:21:56;3.95;;;1.95;;
25531;SDS011;13429;48.816;9.118;2022-09-29T13:24:44;7.13;;;2.22;;
25531;SDS011;13429;48.816;9.118;2022-09-29T13:27:20;5.97;;;1.85;;
25531;SDS011;13429;48.816;9.118;2022-09-29T13:29:54;4.32;;;2.10;;
25531;SDS011;13429;48.816;9.118;2022-09-29T13:32:21;4.20;;;1.77;;
25531;SDS011;13429;48.816;9.118;2022-09-29T13:34:51;2.63;;;1.30;;
25531;SDS011;13429;48.816;9.118;2022-09-29T13:37:18;7.93;;;2.22;;
25531;SDS011;13429;48.816;9.118;2022-09-29T13:39:53;4.22;;;1.67;;
25531;SDS011;13429;48.816;9.118;2022-09-29T13:42:25;2.72;;;1.60;;
25531;SDS011;13429;48.816;9.118;2022-09-29T13:47:31;2.63;;;1.33;;
25531;SDS011;13429;48.816;9.118;2022-09-29T13:50:02;4.90;;;1.83;;
25531;SDS011;13429;48.816;9.118;2022-09-29T13:52:43;4.35;;;1.67;;
25531;SDS011;13429;48.816;9.118;2022-09-29T13:57:57;4.45;;;2.10;;
25531;SDS011;13429;48.816;9.118;2022-09-29T14:00:23;6.05;;;2.22;;
25531;SDS011;13429;48.816;9.118;2022-09-29T14:02:59;5.65;;;1.90;;
25531;SDS011;13429;48.816;9.118;2022-09-29T14:12:59;6.90;;;3.10;;
25531;SDS011;13429;48.816;9.118;2022-09-29T14:15:27;5.68;;;1.83;;
25531;SDS011;13429;48.816;9.118;2022-09-29T14:17:59;4.88;;;1.67;;
25531;SDS011;13429;48.816;9.118;2022-09-29T14:20:28;4.57;;;2.80;;
25531;SDS011;13429;48.816;9.118;2022-09-29T14:22:56;3.30;;;2.75;;
25531;SDS011;13429;48.816;9.118;2022-09-29T14:25:26;7.47;;;2.30;;
25531;SDS011;13429;48.816;9.118;2022-09-29T14:35:41;4.35;;;2.60;;
25531;SDS011;13429;48.816;9.118;2022-09-29T14:38:19;5.75;;;1.92;;
25531;SDS011;13429;48.816;9.118;2022-09-29T14:40:55;6.15;;;1.95;;
25531;SDS011;13429;48.816;9.118;2022-09-29T14:43:34;7.63;;;2.20;;
25531;SDS011;13429;48.816;9.118;2022-09-29T14:52:07;6.63;;;2.22;;
25531;SDS011;13429;48.816;9.118;2022-09-29T14:54:51;6.20;;;2.50;;
25531;SDS011;13429;48.816;9.118;2022-09-29T14:57:32;7.60;;;3.05;;
25531;SDS011;13429;48.816;9.118;2022-09-29T15:00:03;4.60;;;2.15;;
25531;SDS011;13429;48.816;9.118;2022-09-29T15:02:31;3.42;;;1.80;;
25531;SDS011;13429;48.816;9.118;2022-09-29T15:04:59;4.72;;;2.05;;
25531;SDS011;13429;48.816;9.118;2022-09-29T15:07:25;2.92;;;1.70;;
25531;SDS011;13429;48.816;9.118;2022-09-29T15:09:53;6.30;;;2.13;;
25531;SDS011;13429;48.816;9.118;2022-09-29T15:12:24;5.78;;;2.20;;
25531;SDS011;13429;48.816;9.118;2022-09-29T15:14:51;6.28;;;2.10;;
25531;SDS011;13429;48.816;9.118;2022-09-29T15:19:44;3.30;;;2.17;;
25531;SDS011;13429;48.816;9.118;2022-09-29T15:22:36;4.45;;;2.03;;
25531;SDS011;13429;48.816;9.118;2022-09-29T15:27:41;5.55;;;1.42;;
25531;SDS011;13429;48.816;9.118;2022-09-29T15:30:13;6.25;;;1.80;;
25531;SDS011;13429;48.816;9.118;2022-09-29T15:32:41;6.43;;;1.92;;
25531;SDS011;13429;48.816;9.118;2022-09-29T15:35:07;4.45;;;1.55;;
25531;SDS011;13429;48.816;9.118;2022-09-29T15:40:19;3.88;;;1.30;;
25531;SDS011;13429;48.816;9.118;2022-09-29T15:42:45;4.72;;;1.77;;
25531;SDS011;13429;48.816;9.118;2022-09-29T15:45:14;4.40;;;1.48;;
25531;SDS011;13429;48.816;9.118;2022-09-29T15:47:41;6.47;;;1.88;;
25531;SDS011;13429;48.816;9.118;2022-09-29T15:50:20;8.35;;;2.63;;
25531;SDS011;13429;48.816;9.118;2022-09-29T15:52:47;4.10;;;2.92;;
25531;SDS011;13429;48.816;9.118;2022-09-29T15:55:14;4.68;;;1.67;;
25531;SDS011;13429;48.816;9.118;2022-09-29T15:57:45;6.25;;;1.95;;
25531;SDS011;13429;48.816;9.118;2022-09-29T16:05:31;2.70;;;1.23;;
25531;SDS011;13429;48.816;9.118;2022-09-29T16:08:04;5.47;;;2.38;;
25531;SDS011;13429;48.816;9.118;2022-09-29T16:10:41;4.22;;;2.15;;
25531;SDS011;13429;48.816;9.118;2022-09-29T16:13:13;8.38;;;2.20;;
25531;SDS011;13429;48.816;9.118;2022-09-29T16:15:44;4.30;;;2.17;;
25531;SDS011;13429;48.816;9.118;2022-09-29T16:20:42;5.25;;;1.92;;
25531;SDS011;13429;48.816;9.118;2022-09-29T16:31:23;27.38;;;18.52;;
25531;SDS011;13429;48.816;9.118;2022-09-29T16:33:52;24.20;;;14.70;;
25531;SDS011;13429;48.816;9.118;2022-09-29T16:36:22;24.15;;;16.08;;
25531;SDS011;13429;48.816;9.118;2022-09-29T16:38:49;16.48;;;12.32;;
25531;SDS011;13429;48.816;9.118;2022-09-29T16:41:24;16.85;;;10.20;;
25531;SDS011;13429;48.816;9.118;2022-09-29T16:44:02;8.05;;;5.53;;
25531;SDS011;13429;48.816;9.118;2022-09-29T16:46:31;4.20;;;3.13;;
25531;SDS011;13429;48.816;9.118;2022-09-29T16:48:57;4.88;;;3.10;;
25531;SDS011;13429;48.816;9.118;2022-09-29T16:51:24;6.75;;;2.85;;
25531;SDS011;13429;48.816;9.118;2022-09-29T16:53:50;6.40;;;3.33;;
25531;SDS011;13429;48.816;9.118;2022-09-29T16:56:26;5.05;;;2.92;;
25531;SDS011;13429;48.816;9.118;2022-09-29T16:59:16;6.15;;;2.97;;
25531;SDS011;13429;48.816;9.118;2022-09-29T17:01:43;4.05;;;2.60;;
25531;SDS011;13429;48.816;9.118;2022-09-29T17:04:10;3.85;;;2.22;;
25531;SDS011;13429;48.816;9.118;2022-09-29T17:06:36;7.65;;;3.00;;
25531;SDS011;13429;48.816;9.118;2022-09-29T17:09:03;5.00;;;2.40;;
25531;SDS011;13429;48.816;9.118;2022-09-29T17:11:29;5.32;;;2.47;;
25531;SDS011;13429;48.816;9.118;2022-09-29T17:13:55;4.35;;;2.72;;
25531;SDS011;13429;48.816;9.118;2022-09-29T17:16:21;5.40;;;2.80;;
25531;SDS011;13429;48.816;9.118;2022-09-29T17:18:51;6.30;;;2.92;;
25531;SDS011;13429;48.816;9.118;2022-09-29T17:21:17;6.90;;;3.30;;
25531;SDS011;13429;48.816;9.118;2022-09-29T17:23:43;7.10;;;2.95;;
25531;SDS011;13429;48.816;9.118;2022-09-29T17:26:16;4.78;;;3.10;;
25531;SDS011;13429;48.816;9.118;2022-09-29T17:29:01;8.07;;;3.60;;
25531;SDS011;13429;48.816;9.118;2022-09-29T17:31:27;7.13;;;2.95;;
25531;SDS011;13429;48.816;9.118;2022-09-29T17:33:53;8.90;;;4.35;;
25531;SDS011;13429;48.816;9.118;2022-09-29T17:36:19;13.02;;;5.03;;
25531;SDS011;13429;48.816;9.118;2022-09-29T17:38:47;7.13;;;4.95;;
25531;SDS011;13429;48.816;9.118;2022-09-29T17:41:14;9.00;;;4.95;;
25531;SDS011;13429;48.816;9.118;2022-09-29T17:43:41;7.25;;;5.20;;
25531;SDS011;13429;48.816;9.118;2022-09-29T17:46:10;9.27;;;5.63;;
25531;SDS011;13429;48.816;9.118;2022-09-29T17:48:38;7.82;;;4.90;;
25531;SDS011;13429;48.816;9.118;2022-09-29T17:51:05;7.32;;;4.75;;
25531;SDS011;13429;48.816;9.118;2022-09-29T17:53:34;6.00;;;4.55;;
25531;SDS011;13429;48.816;9.118;2022-09-29T17:56:00;7.25;;;4.65;;
25531;SDS011;13429;48.816;9.118;2022-09-29T17:58:27;6.78;;;4.18;;
25531;SDS011;13429;48.816;9.118;2022-09-29T18:00:53;10.63;;;4.30;;
25531;SDS011;13429;48.816;9.118;2022-09-29T18:03:21;10.23;;;4.88;;
25531;SDS011;13429;48.816;9.118;2022-09-29T18:05:52;7.07;;;4.07;;
25531;SDS011;13429;48.816;9.118;2022-09-29T18:08:20;8.10;;;4.28;;